Time;durP1;ratioP1;P1;durP2;ratioP2;P2;SDS_P1;SDS_P2;PMS_P1;PMS_P2;Temp;Humidity;BMP_temperature;BMP_pressure;BME280_temperature;BME280_humidity;BME280_pressure;Samples;Min_cycle;Max_cycle;Signal;HPM_P1;HPM_P2
2021/12/05 00:24:16;;;;;;;;;;;16.50;45.40;15.30;99344.00;;;;5076865;28;20855;-61
2021/12/05 00:27:08;;;;;;;;;;;16.40;45.30;15.30;99341.00;;;;5074276;28;19920;-63
2021/12/05 00:41:44;;;;;;;;;;;16.50;45.40;15.30;99352.00;;;;5077132;28;20555;-61
2021/12/05 00:51:08;;;;;;;;;;;16.50;45.40;15.30;99361.00;;;;5031526;28;19921;-62
2021/12/05 00:54:29;;;;;;;;;;;16.50;45.40;15.30;99368.00;;;;5063802;28;19919;-61
2021/12/05 00:57:28;;;;;;;;;;;16.50;45.30;15.30;99376.00;;;;5073865;28;19924;-62
2021/12/05 01:03:47;;;;;;;;;;;16.50;45.30;15.30;99373.00;;;;5062830;28;20434;-62
2021/12/05 01:09:45;;;;;;;;;;;16.50;45.30;15.30;99382.00;;;;5073958;28;20007;-62
2021/12/05 01:12:40;;;;;;;;;;;16.50;45.30;15.30;99379.00;;;;5074534;28;20017;-62
2021/12/05 01:15:28;;;;;;;;;;;16.50;45.30;15.30;99380.00;;;;5077579;28;19919;-61
2021/12/05 01:18:17;;;;;;;;;;;16.50;45.30;15.30;99391.00;;;;5065830;28;19916;-62
2021/12/05 01:21:07;;;;;;;;;;;16.50;45.40;15.30;99384.00;;;;5074394;28;19967;-61
2021/12/05 01:27:00;;;;;;;;;;;16.50;45.30;15.30;99396.00;;;;5061047;28;19926;-62
2021/12/05 01:29:56;;;;;;;;;;;16.50;45.30;15.30;99392.00;;;;5078295;27;20464;-61
2021/12/05 01:32:55;;;;;;;;;;;16.50;45.30;15.30;99400.00;;;;5074997;28;19922;-61
2021/12/05 01:36:00;;;;;;;;;;;16.50;45.30;15.30;99403.00;;;;5061890;28;20365;-62
2021/12/05 01:42:32;;;;;;;;;;;16.50;45.30;15.30;99405.00;;;;5071473;28;20596;-61
2021/12/05 01:54:13;;;;;;;;;;;16.50;45.20;15.40;99415.00;;;;5058672;28;19920;-62
2021/12/05 02:12:03;;;;;;;;;;;16.60;45.20;15.40;99427.00;;;;5074212;28;19958;-62
2021/12/05 02:42:13;;;;;;;;;;;16.60;45.10;15.40;99419.00;;;;5080619;28;20340;-62
2021/12/05 02:44:59;;;;;;;;;;;16.60;45.10;15.40;99418.00;;;;5073623;28;20331;-62
2021/12/05 02:47:50;;;;;;;;;;;16.60;45.10;15.40;99416.00;;;;5079525;28;19920;-62
2021/12/05 02:50:37;;;;;;;;;;;16.60;45.10;15.40;99417.00;;;;5089879;27;19922;-62
2021/12/05 02:53:33;;;;;;;;;;;16.60;45.10;15.40;99403.00;;;;5067800;28;19923;-62
2021/12/05 02:56:19;;;;;;;;;;;16.60;45.00;15.40;99410.00;;;;5063542;28;19920;-62
2021/12/05 02:59:18;;;;;;;;;;;16.60;45.00;15.40;99411.00;;;;5081568;28;20340;-61
2021/12/05 03:02:13;;;;;;;;;;;16.60;45.00;15.40;99407.00;;;;5072199;28;19917;-62
2021/12/05 03:05:00;;;;;;;;;;;16.60;45.00;15.40;99410.00;;;;5065181;28;19920;-62
2021/12/05 03:07:49;;;;;;;;;;;16.70;45.00;15.40;99411.00;;;;5080691;28;20021;-62
2021/12/05 03:10:35;;;;;;;;;;;16.60;45.00;15.40;99404.00;;;;5086801;27;19923;-62
2021/12/05 03:13:22;;;;;;;;;;;16.60;45.00;15.40;99398.00;;;;5075493;28;19927;-63
2021/12/05 03:16:10;;;;;;;;;;;16.60;45.00;15.40;99406.00;;;;5071193;28;19982;-62
2021/12/05 03:18:56;;;;;;;;;;;16.60;45.00;15.40;99407.00;;;;5097632;27;19927;-62
2021/12/05 03:21:42;;;;;;;;;;;16.60;45.00;15.40;99403.00;;;;5080680;28;20329;-62
2021/12/05 03:24:29;;;;;;;;;;;16.60;45.00;15.40;99404.00;;;;5072131;28;19969;-62
2021/12/05 03:27:15;;;;;;;;;;;16.60;45.00;15.40;99418.00;;;;5074916;28;20024;-61
2021/12/05 03:30:02;;;;;;;;;;;16.60;45.00;15.40;99413.00;;;;5079975;28;19923;-62
2021/12/05 03:32:50;;;;;;;;;;;16.60;45.00;15.40;99408.00;;;;5068275;28;20202;-63
2021/12/05 03:35:36;;;;;;;;;;;16.60;45.00;15.40;99411.00;;;;5064795;28;19924;-62
2021/12/05 03:38:22;;;;;;;;;;;16.60;45.00;15.30;99414.00;;;;5078589;28;19923;-62
2021/12/05 03:41:09;;;;;;;;;;;16.60;45.00;15.40;99413.00;;;;5077574;28;19920;-62
2021/12/05 03:43:55;;;;;;;;;;;16.60;45.00;15.40;99412.00;;;;5076342;28;19927;-62
2021/12/05 03:46:41;;;;;;;;;;;16.60;45.00;15.40;99414.00;;;;5089471;27;19923;-61
2021/12/05 03:49:28;;;;;;;;;;;16.60;44.90;15.30;99416.00;;;;5064768;28;20395;-61
2021/12/05 03:52:15;;;;;;;;;;;16.60;45.00;15.30;99407.00;;;;5057279;28;20384;-62
2021/12/05 03:55:02;;;;;;;;;;;16.60;45.00;15.40;99421.00;;;;5081021;28;19916;-62
2021/12/05 03:57:48;;;;;;;;;;;16.50;44.90;15.30;99416.00;;;;5080916;28;19923;-62
2021/12/05 04:00:38;;;;;;;;;;;16.50;44.90;15.30;99413.00;;;;5063069;28;20006;-62
2021/12/05 04:03:25;;;;;;;;;;;16.50;44.90;15.30;99420.00;;;;5094287;27;20270;-62
2021/12/05 04:06:12;;;;;;;;;;;16.50;44.90;15.30;99414.00;;;;5088937;27;20392;-62
2021/12/05 04:09:00;;;;;;;;;;;16.50;44.90;15.30;99424.00;;;;5078062;28;19958;-62
2021/12/05 04:11:56;;;;;;;;;;;16.50;44.90;15.30;99435.00;;;;5090077;27;21330;-61
2021/12/05 04:14:44;;;;;;;;;;;16.50;44.90;15.30;99429.00;;;;5070988;28;19963;-61
2021/12/05 04:17:30;;;;;;;;;;;16.50;44.90;15.30;99428.00;;;;5074100;28;19916;-62
2021/12/05 04:20:16;;;;;;;;;;;16.50;44.90;15.30;99428.00;;;;5054710;28;19920;-62
2021/12/05 04:23:02;;;;;;;;;;;16.50;44.90;15.30;99435.00;;;;5086158;27;19920;-62
2021/12/05 04:25:50;;;;;;;;;;;16.50;44.90;15.30;99432.00;;;;5072998;28;19927;-61
2021/12/05 04:28:38;;;;;;;;;;;16.50;44.90;15.30;99435.00;;;;5074650;28;19946;-62
2021/12/05 04:31:24;;;;;;;;;;;16.50;44.90;15.30;99442.00;;;;5073930;28;19921;-62
2021/12/05 04:34:12;;;;;;;;;;;16.50;44.90;15.40;99441.00;;;;5087527;27;19927;-61
2021/12/05 04:36:58;;;;;;;;;;;16.50;44.90;15.30;99440.00;;;;5076400;28;20047;-62
2021/12/05 04:39:44;;;;;;;;;;;16.60;45.00;15.40;99444.00;;;;5063693;28;19952;-62
2021/12/05 04:42:30;;;;;;;;;;;16.50;44.90;15.40;99441.00;;;;5071108;28;19921;-61
2021/12/05 04:45:20;;;;;;;;;;;16.60;44.90;15.40;99445.00;;;;5072834;28;19921;-61
2021/12/05 04:48:06;;;;;;;;;;;16.50;44.90;15.40;99444.00;;;;5077898;28;19922;-62
2021/12/05 04:50:52;;;;;;;;;;;16.60;44.90;15.40;99444.00;;;;5075131;28;19920;-61
2021/12/05 04:53:38;;;;;;;;;;;16.60;44.90;15.40;99451.00;;;;5059754;28;19920;-62
2021/12/05 04:56:24;;;;;;;;;;;16.60;44.90;15.40;99455.00;;;;5076698;28;20523;-62
2021/12/05 04:59:13;;;;;;;;;;;16.60;44.90;15.40;99457.00;;;;5070203;28;20002;-61
2021/12/05 05:01:59;;;;;;;;;;;16.60;44.90;15.40;99464.00;;;;5088163;27;19923;-62
2021/12/05 05:04:48;;;;;;;;;;;16.60;44.80;15.40;99468.00;;;;5087760;27;19920;-62
2021/12/05 05:07:36;;;;;;;;;;;16.60;44.80;15.40;99470.00;;;;5058913;28;19923;-62
2021/12/05 05:10:25;;;;;;;;;;;16.50;44.80;15.40;99479.00;;;;5086389;27;22120;-61
2021/12/05 05:13:11;;;;;;;;;;;16.60;44.90;15.40;99475.00;;;;5080192;28;19924;-61
2021/12/05 05:15:57;;;;;;;;;;;16.60;44.90;15.40;99474.00;;;;5072982;28;19915;-62
2021/12/05 05:19:02;;;;;;;;;;;16.60;44.90;15.40;99486.00;;;;5074683;28;19924;-62
2021/12/05 05:40:12;;;;;;;;;;;16.60;44.90;15.40;99515.00;;;;5066922;28;20515;-62
2021/12/05 05:43:27;;;;;;;;;;;16.60;44.80;15.40;99515.00;;;;5064689;28;20277;-62
2021/12/05 05:46:16;;;;;;;;;;;16.60;44.80;15.40;99522.00;;;;5064870;28;20246;-61
2021/12/05 05:49:18;;;;;;;;;;;16.60;44.80;15.40;99523.00;;;;5078213;28;20615;-61
2021/12/05 05:52:05;;;;;;;;;;;16.60;44.80;15.40;99525.00;;;;5067245;28;20004;-62
2021/12/05 05:54:52;;;;;;;;;;;16.60;44.80;15.40;99528.00;;;;5083728;28;19926;-61
2021/12/05 05:57:44;;;;;;;;;;;16.60;44.70;15.40;99532.00;;;;5062276;28;20025;-61
2021/12/05 06:00:34;;;;;;;;;;;16.60;44.80;15.40;99537.00;;;;5085200;28;20063;-61
2021/12/05 06:03:24;;;;;;;;;;;16.70;44.80;15.40;99534.00;;;;5075718;28;20679;-62
2021/12/05 06:06:11;;;;;;;;;;;16.70;44.80;15.50;99540.00;;;;5078589;28;19921;-62
2021/12/05 06:08:57;;;;;;;;;;;16.70;44.80;15.50;99544.00;;;;5083787;28;19931;-62
2021/12/05 06:11:43;;;;;;;;;;;16.70;44.80;15.50;99548.00;;;;5071863;28;19947;-61
2021/12/05 06:14:30;;;;;;;;;;;16.70;44.80;15.50;99541.00;;;;5081609;28;19916;-61
2021/12/05 06:17:18;;;;;;;;;;;16.70;44.80;15.50;99545.00;;;;5077984;28;20005;-62
2021/12/05 06:20:08;;;;;;;;;;;16.70;44.80;15.50;99544.00;;;;5079066;28;20298;-62
2021/12/05 06:22:55;;;;;;;;;;;16.70;44.80;15.50;99553.00;;;;5096752;27;19916;-61
2021/12/05 06:25:42;;;;;;;;;;;16.70;44.70;15.40;99550.00;;;;5058913;28;20305;-61
2021/12/05 06:28:35;;;;;;;;;;;16.70;44.70;15.50;99555.00;;;;5064198;28;20273;-61
2021/12/05 06:49:07;;;;;;;;;;;16.70;44.80;15.40;99589.00;;;;5095819;27;19939;-61
2021/12/05 06:51:53;;;;;;;;;;;16.70;44.70;15.40;99587.00;;;;5073386;28;19931;-62
2021/12/05 06:54:41;;;;;;;;;;;16.70;44.70;15.50;99583.00;;;;5073916;28;19920;-61
2021/12/05 06:57:27;;;;;;;;;;;16.70;44.70;15.40;99584.00;;;;5074989;28;19924;-62
2021/12/05 07:00:23;;;;;;;;;;;16.70;44.70;15.40;99596.00;;;;5090866;27;20010;-61
2021/12/05 07:03:10;;;;;;;;;;;16.70;44.70;15.40;99600.00;;;;5073823;28;19920;-61
2021/12/05 07:06:06;;;;;;;;;;;16.70;44.70;15.40;99604.00;;;;5082489;28;19941;-62
2021/12/05 07:08:56;;;;;;;;;;;16.70;44.70;15.40;99606.00;;;;5077878;28;19927;-61
2021/12/05 07:12:34;;;;;;;;;;;16.70;44.70;15.50;99615.00;;;;5071009;28;20195;-61
2021/12/05 07:42:23;;;;;;;;;;;16.70;44.70;15.50;99637.00;;;;5078888;28;20444;-61
2021/12/05 07:45:12;;;;;;;;;;;16.70;44.70;15.50;99632.00;;;;5075372;28;20571;-62
2021/12/05 07:48:04;;;;;;;;;;;16.70;44.70;15.50;99646.00;;;;5076270;28;19920;-61
2021/12/05 07:51:07;;;;;;;;;;;16.70;44.70;15.50;99654.00;;;;5088736;27;19971;-61
2021/12/05 08:15:19;;;;;;;;;;;16.80;44.60;15.50;99654.00;;;;5076151;28;19927;-62
2021/12/05 08:18:05;;;;;;;;;;;16.80;44.60;15.50;99652.00;;;;5093753;27;19987;-61
2021/12/05 08:20:51;;;;;;;;;;;16.80;45.30;15.50;99667.00;;;;5085449;28;19928;-61
2021/12/05 08:23:38;;;;;;;;;;;16.80;45.30;15.50;99662.00;;;;5066971;28;19924;-61
2021/12/05 08:26:31;;;;;;;;;;;16.80;44.40;15.40;99658.00;;;;5076194;28;19935;-61
2021/12/05 08:29:23;;;;;;;;;;;16.80;44.40;15.40;99654.00;;;;5071268;28;19916;-62
2021/12/05 08:35:19;;;;;;;;;;;16.70;44.50;15.40;99670.00;;;;5066983;28;19917;-61
2021/12/05 09:20:59;;;;;;;;;;;17.00;44.90;15.80;99741.00;;;;5087285;27;20461;-62
2021/12/05 09:24:35;;;;;;;;;;;17.00;44.90;15.80;99745.00;;;;5083004;28;19998;-62
2021/12/05 10:19:06;;;;;;;;;;;16.90;45.00;15.70;99823.00;;;;5062305;28;20334;-62
2021/12/05 10:38:01;;;;;;;;;;;16.90;44.60;15.60;99851.00;;;;5076808;28;19928;-62
2021/12/05 10:40:57;;;;;;;;;;;16.90;44.70;15.60;99859.00;;;;5063370;28;20241;-62
2021/12/05 10:43:44;;;;;;;;;;;16.90;44.70;15.60;99863.00;;;;5080426;28;19916;-62
2021/12/05 10:46:30;;;;;;;;;;;16.90;44.80;15.60;99858.00;;;;5076660;28;19920;-62
2021/12/05 10:49:17;;;;;;;;;;;16.90;44.70;15.70;99861.00;;;;5061803;28;20027;-62
2021/12/05 10:52:04;;;;;;;;;;;16.90;45.40;15.70;99864.00;;;;5090119;28;19924;-62
2021/12/05 10:55:04;;;;;;;;;;;16.90;44.80;15.70;99867.00;;;;5039302;28;19931;-62
2021/12/05 10:57:51;;;;;;;;;;;16.90;44.80;15.60;99859.00;;;;5076311;28;19924;-62
2021/12/05 11:00:38;;;;;;;;;;;16.90;44.70;15.50;99862.00;;;;5081209;28;20216;-62
2021/12/05 11:03:29;;;;;;;;;;;16.90;44.60;15.50;99858.00;;;;5049940;28;19923;-61
2021/12/05 11:06:29;;;;;;;;;;;16.90;44.60;15.50;99872.00;;;;5084621;28;19919;-62
2021/12/05 11:09:29;;;;;;;;;;;16.90;44.50;15.40;99861.00;;;;5106378;27;20389;-62
2021/12/05 11:12:16;;;;;;;;;;;16.80;44.50;15.40;99866.00;;;;5096890;27;19923;-62
2021/12/05 11:15:11;;;;;;;;;;;16.70;44.50;15.40;99863.00;;;;5088338;27;19958;-62
2021/12/05 11:17:59;;;;;;;;;;;16.70;44.40;15.30;99870.00;;;;5098538;27;19924;-62
2021/12/05 11:20:45;;;;;;;;;;;16.60;44.40;15.30;99879.00;;;;5077594;28;19916;-65
2021/12/05 11:23:31;;;;;;;;;;;16.60;44.30;15.20;99878.00;;;;5068515;28;19951;-65
2021/12/05 11:26:18;;;;;;;;;;;16.50;44.40;15.20;99875.00;;;;5066645;28;19924;-62
2021/12/05 11:29:04;;;;;;;;;;;16.50;44.50;15.20;99888.00;;;;5069889;28;20613;-62
2021/12/05 11:31:52;;;;;;;;;;;16.40;44.50;15.20;99892.00;;;;5085515;27;19920;-62
2021/12/05 11:34:38;;;;;;;;;;;16.40;44.60;15.20;99890.00;;;;5078134;28;19959;-62
2021/12/05 11:37:25;;;;;;;;;;;16.30;44.40;15.10;99892.00;;;;5091648;27;19920;-62
2021/12/05 11:40:11;;;;;;;;;;;16.30;44.60;15.10;99899.00;;;;5060970;28;19928;-65
2021/12/05 11:43:02;;;;;;;;;;;16.30;44.70;15.10;99897.00;;;;5073344;28;19961;-64
2021/12/05 11:45:52;;;;;;;;;;;16.20;44.60;15.00;99903.00;;;;5080123;28;20270;-68
2021/12/05 11:48:46;;;;;;;;;;;16.20;44.60;15.00;99905.00;;;;5074818;28;19931;-63
2021/12/05 11:51:35;;;;;;;;;;;16.20;44.60;14.90;99909.00;;;;5071348;28;19970;-63
2021/12/05 11:54:28;;;;;;;;;;;16.10;44.50;14.90;99903.00;;;;5083693;28;19916;-63
2021/12/05 11:57:26;;;;;;;;;;;16.10;44.60;15.00;99915.00;;;;5082164;28;20194;-63
2021/12/05 12:00:15;;;;;;;;;;;16.10;44.70;15.00;99910.00;;;;5077615;28;19928;-62
2021/12/05 12:03:02;;;;;;;;;;;16.10;44.80;15.00;99913.00;;;;5090773;28;20087;-62
2021/12/05 12:05:48;;;;;;;;;;;16.10;44.90;15.10;99914.00;;;;5080807;28;19924;-62
2021/12/05 12:08:34;;;;;;;;;;;16.10;45.00;15.10;99908.00;;;;5086470;28;20365;-62
2021/12/05 12:11:20;;;;;;;;;;;16.20;45.10;15.20;99909.00;;;;5087261;28;19926;-63
2021/12/05 12:14:06;;;;;;;;;;;16.20;45.10;15.20;99906.00;;;;5089330;28;19940;-62
2021/12/05 12:16:53;;;;;;;;;;;16.30;45.20;15.30;99913.00;;;;5082282;28;20373;-63
2021/12/05 12:19:39;;;;;;;;;;;16.30;45.10;15.30;99914.00;;;;5079632;28;20356;-62
2021/12/05 12:22:26;;;;;;;;;;;16.40;45.20;15.40;99914.00;;;;5092367;27;19970;-62
2021/12/05 12:25:15;;;;;;;;;;;16.40;45.20;15.40;99919.00;;;;5064227;28;20187;-62
2021/12/05 12:28:01;;;;;;;;;;;16.50;45.20;15.40;99922.00;;;;5096167;27;20022;-63
2021/12/05 12:30:55;;;;;;;;;;;16.50;45.10;15.50;99919.00;;;;5072923;28;19927;-62
2021/12/05 12:33:43;;;;;;;;;;;16.60;45.00;15.50;99924.00;;;;5073986;28;19920;-63
2021/12/05 12:36:36;;;;;;;;;;;16.60;45.00;15.50;99930.00;;;;5072042;28;19916;-62
2021/12/05 12:39:26;;;;;;;;;;;16.60;45.00;15.50;99926.00;;;;5074498;28;19954;-64
2021/12/05 12:42:19;;;;;;;;;;;16.70;45.00;15.60;99936.00;;;;5084862;28;19986;-63
2021/12/05 12:45:10;;;;;;;;;;;16.70;45.00;15.60;99937.00;;;;5073890;28;19963;-62
2021/12/05 12:47:58;;;;;;;;;;;16.80;45.10;15.60;99941.00;;;;5105260;27;20280;-63
2021/12/05 12:50:51;;;;;;;;;;;16.80;45.10;15.70;99948.00;;;;5075432;28;19920;-62
2021/12/05 12:53:40;;;;;;;;;;;16.80;45.00;15.70;99949.00;;;;5087936;28;19926;-62
2021/12/05 12:56:26;;;;;;;;;;;16.80;44.90;15.70;99956.00;;;;5059388;28;19920;-63
2021/12/05 12:59:13;;;;;;;;;;;16.90;45.00;15.70;99959.00;;;;5079005;28;19928;-63
2021/12/05 13:05:05;;;;;;;;;;;16.90;45.00;15.70;99961.00;;;;5087344;28;20232;-63
2021/12/05 13:10:58;;;;;;;;;;;17.00;44.80;15.80;99964.00;;;;5071478;28;20334;-63
2021/12/05 13:13:46;;;;;;;;;;;17.00;44.80;15.80;99955.00;;;;5055846;28;20306;-63
2021/12/05 13:16:36;;;;;;;;;;;17.00;45.10;15.80;99962.00;;;;5073594;28;19964;-62
2021/12/05 13:19:26;;;;;;;;;;;17.00;44.80;15.80;99960.00;;;;5073923;28;19931;-62
2021/12/05 13:22:12;;;;;;;;;;;17.00;44.70;15.80;99963.00;;;;5071986;28;20332;-63
2021/12/05 13:25:05;;;;;;;;;;;17.00;44.70;15.80;99959.00;;;;5072919;28;20373;-62
2021/12/05 13:27:52;;;;;;;;;;;17.00;44.60;15.80;99959.00;;;;5073513;28;19924;-63
2021/12/05 13:30:40;;;;;;;;;;;17.00;44.60;15.80;99964.00;;;;5053549;28;19962;-62
2021/12/05 13:33:28;;;;;;;;;;;17.00;44.60;15.80;99973.00;;;;5069630;28;20414;-62
2021/12/05 13:36:29;;;;;;;;;;;17.00;44.60;15.80;99976.00;;;;5070114;28;19973;-62
2021/12/05 13:39:52;;;;;;;;;;;17.00;44.60;15.80;99979.00;;;;5074238;28;20336;-62
2021/12/05 13:42:46;;;;;;;;;;;17.00;44.60;15.80;99977.00;;;;5027081;28;19936;-62
2021/12/05 13:45:40;;;;;;;;;;;17.00;44.50;15.80;99981.00;;;;5064606;28;19927;-62
2021/12/05 13:48:29;;;;;;;;;;;17.00;44.60;15.80;99987.00;;;;5060668;28;20331;-62
2021/12/05 13:51:22;;;;;;;;;;;17.00;44.60;15.80;99987.00;;;;5065465;28;20337;-62
2021/12/05 13:54:11;;;;;;;;;;;17.00;44.50;15.80;99999.00;;;;5098265;28;19975;-63
2021/12/05 13:57:07;;;;;;;;;;;17.00;44.60;15.80;100006.00;;;;5087501;28;19973;-63
2021/12/05 13:59:53;;;;;;;;;;;17.00;44.60;15.80;100006.00;;;;5081676;28;19928;-63
2021/12/05 14:02:52;;;;;;;;;;;17.00;44.70;15.80;100013.00;;;;5083763;28;19920;-62
2021/12/05 14:05:45;;;;;;;;;;;17.00;44.70;15.80;100023.00;;;;5084280;28;19926;-63
2021/12/05 14:08:31;;;;;;;;;;;17.00;44.80;15.80;100021.00;;;;5069979;28;19919;-63
2021/12/05 14:11:18;;;;;;;;;;;17.00;44.90;15.80;100022.00;;;;5083597;28;19916;-63
2021/12/05 14:14:05;;;;;;;;;;;17.00;44.90;15.80;100023.00;;;;5068515;28;20146;-63
2021/12/05 14:16:52;;;;;;;;;;;17.00;45.00;15.80;100037.00;;;;5095787;28;19924;-62
2021/12/05 14:19:39;;;;;;;;;;;17.00;45.00;15.80;100038.00;;;;5096269;28;19923;-62
2021/12/05 14:22:29;;;;;;;;;;;17.00;45.10;15.80;100048.00;;;;5097338;28;19931;-62
2021/12/05 14:25:20;;;;;;;;;;;17.00;45.20;15.80;100048.00;;;;5073230;28;19924;-63
2021/12/05 14:28:06;;;;;;;;;;;17.00;45.20;15.80;100053.00;;;;5073381;28;19928;-62
2021/12/05 14:30:54;;;;;;;;;;;17.00;45.20;15.80;100058.00;;;;5092875;27;20284;-63
2021/12/05 14:33:58;;;;;;;;;;;17.00;45.20;15.80;100060.00;;;;5087245;28;19916;-62
2021/12/05 14:36:46;;;;;;;;;;;17.00;45.20;15.80;100073.00;;;;5087410;28;19916;-63
2021/12/05 14:39:33;;;;;;;;;;;17.00;45.30;15.80;100069.00;;;;5072972;28;19920;-63
2021/12/05 14:42:24;;;;;;;;;;;17.00;45.40;15.80;100083.00;;;;5058650;28;20289;-62
2021/12/05 14:45:12;;;;;;;;;;;17.00;46.00;15.80;100085.00;;;;5071416;28;19975;-62
2021/12/05 14:48:02;;;;;;;;;;;17.00;45.40;15.80;100087.00;;;;5070846;28;19923;-63
2021/12/05 14:50:51;;;;;;;;;;;17.10;45.40;15.80;100091.00;;;;5070955;28;19927;-63
2021/12/05 14:53:40;;;;;;;;;;;17.00;45.50;15.90;100098.00;;;;5070389;28;19920;-62
2021/12/05 14:56:30;;;;;;;;;;;17.10;45.60;15.90;100109.00;;;;5070506;28;19931;-63
2021/12/05 14:59:16;;;;;;;;;;;17.10;45.60;15.80;100108.00;;;;5075462;28;19916;-62
2021/12/05 15:02:04;;;;;;;;;;;17.10;45.50;15.80;100118.00;;;;5065114;28;19920;-63
2021/12/05 15:04:51;;;;;;;;;;;17.10;45.50;15.80;100126.00;;;;5074276;28;19924;-63
2021/12/05 15:07:38;;;;;;;;;;;17.10;45.30;15.70;100143.00;;;;5071987;28;19922;-62
2021/12/05 15:10:24;;;;;;;;;;;17.00;45.90;15.70;100134.00;;;;5074133;28;20304;-63
2021/12/05 15:13:11;;;;;;;;;;;17.00;45.20;15.60;100139.00;;;;5061506;28;20313;-62
2021/12/05 15:15:57;;;;;;;;;;;17.00;45.20;15.60;100138.00;;;;5079905;28;19916;-63
2021/12/05 15:18:44;;;;;;;;;;;16.90;45.10;15.60;100147.00;;;;5041709;28;19920;-63
2021/12/05 15:21:40;;;;;;;;;;;16.90;45.10;15.50;100151.00;;;;5070611;28;20010;-63
2021/12/05 15:24:27;;;;;;;;;;;16.90;45.10;15.50;100161.00;;;;5059624;28;19960;-63
2021/12/05 15:27:23;;;;;;;;;;;16.80;45.10;15.50;100169.00;;;;5080821;28;20163;-63
2021/12/05 15:30:16;;;;;;;;;;;16.80;45.10;15.40;100168.00;;;;5050696;28;19940;-63
2021/12/05 15:33:05;;;;;;;;;;;16.80;45.10;15.40;100173.00;;;;5037631;28;19939;-63
2021/12/05 15:35:51;;;;;;;;;;;16.70;45.00;15.40;100180.00;;;;5052938;28;19916;-62
2021/12/05 15:38:37;;;;;;;;;;;16.70;45.10;15.30;100178.00;;;;5061948;28;19934;-61
2021/12/05 15:41:23;;;;;;;;;;;16.60;45.00;15.30;100181.00;;;;5039388;28;19928;-62
2021/12/05 15:44:09;;;;;;;;;;;16.60;45.00;15.30;100197.00;;;;5036911;28;20134;-61
2021/12/05 15:47:09;;;;;;;;;;;16.60;45.10;15.20;100189.00;;;;5045826;28;20390;-61
2021/12/05 15:50:01;;;;;;;;;;;16.60;45.10;15.20;100192.00;;;;5048708;28;20293;-61
2021/12/05 15:52:51;;;;;;;;;;;16.50;45.10;15.20;100196.00;;;;5060751;28;19963;-61
2021/12/05 15:55:45;;;;;;;;;;;16.50;45.80;15.20;100209.00;;;;5053856;28;19924;-61
2021/12/05 15:58:38;;;;;;;;;;;16.50;45.10;15.30;100217.00;;;;5084167;28;20285;-61
2021/12/05 16:01:25;;;;;;;;;;;16.50;45.10;15.30;100226.00;;;;5043009;28;19916;-62
2021/12/05 16:04:20;;;;;;;;;;;16.50;45.10;15.30;100215.00;;;;5058930;28;19951;-61
2021/12/05 16:07:10;;;;;;;;;;;16.50;45.10;15.30;100219.00;;;;5070910;28;19924;-61
2021/12/05 16:10:32;;;;;;;;;;;16.50;45.20;15.30;100229.00;;;;5046999;28;20365;-61
2021/12/05 16:13:21;;;;;;;;;;;16.50;45.10;15.30;100231.00;;;;4991640;28;19971;-61
2021/12/05 16:16:14;;;;;;;;;;;16.50;45.10;15.30;100232.00;;;;5059423;28;19921;-61
2021/12/05 16:19:01;;;;;;;;;;;16.50;45.20;15.30;100236.00;;;;5088094;28;19927;-62
2021/12/05 16:21:47;;;;;;;;;;;16.50;45.10;15.40;100239.00;;;;5069064;28;19969;-62
2021/12/05 16:24:36;;;;;;;;;;;16.50;45.10;15.40;100239.00;;;;5076540;28;19928;-62
2021/12/05 16:27:22;;;;;;;;;;;16.50;45.10;15.40;100247.00;;;;5072180;28;19935;-62
2021/12/05 16:30:09;;;;;;;;;;;16.50;45.10;15.40;100247.00;;;;5065578;28;20180;-62
2021/12/05 16:32:56;;;;;;;;;;;16.50;45.10;15.40;100252.00;;;;5055363;28;19917;-61
2021/12/05 16:35:46;;;;;;;;;;;16.50;45.10;15.40;100260.00;;;;5051781;28;19916;-61
2021/12/05 16:38:36;;;;;;;;;;;16.50;45.10;15.40;100254.00;;;;5076745;28;19920;-62
2021/12/05 16:41:28;;;;;;;;;;;16.50;45.10;15.40;100256.00;;;;5076489;28;19924;-61
2021/12/05 16:44:20;;;;;;;;;;;16.50;45.10;15.40;100261.00;;;;5048710;28;19924;-62
2021/12/05 16:47:20;;;;;;;;;;;16.50;45.10;15.40;100262.00;;;;5046015;28;19925;-61
2021/12/05 16:50:10;;;;;;;;;;;16.50;45.10;15.40;100281.00;;;;5050611;28;19940;-61
2021/12/05 16:52:58;;;;;;;;;;;16.50;45.20;15.40;100277.00;;;;5054333;28;20282;-65
2021/12/05 16:55:45;;;;;;;;;;;16.50;45.20;15.40;100285.00;;;;5070053;28;19955;-61
2021/12/05 16:58:31;;;;;;;;;;;16.50;45.10;15.40;100282.00;;;;5044015;28;19924;-61
2021/12/05 17:01:19;;;;;;;;;;;16.50;45.10;15.40;100290.00;;;;5062259;28;19978;-61
2021/12/05 17:04:05;;;;;;;;;;;16.50;45.10;15.40;100289.00;;;;5075808;28;19923;-61
2021/12/05 17:06:53;;;;;;;;;;;16.50;45.10;15.40;100296.00;;;;5071020;28;19997;-61
2021/12/05 17:09:40;;;;;;;;;;;16.50;45.10;15.40;100297.00;;;;5064940;28;19974;-61
2021/12/05 17:12:29;;;;;;;;;;;16.50;45.10;15.40;100308.00;;;;5086394;28;20316;-61
2021/12/05 17:15:20;;;;;;;;;;;16.50;45.10;15.40;100307.00;;;;5031340;28;19921;-62
2021/12/05 17:18:14;;;;;;;;;;;16.50;45.10;15.40;100316.00;;;;5059841;28;19916;-61
2021/12/05 17:21:17;;;;;;;;;;;16.50;45.10;15.40;100312.00;;;;5067602;28;19924;-62
2021/12/05 17:24:07;;;;;;;;;;;16.50;45.10;15.40;100317.00;;;;5038818;28;20064;-62
2021/12/05 17:27:04;;;;;;;;;;;16.50;45.10;15.40;100317.00;;;;5065819;28;20016;-63
2021/12/05 17:29:52;;;;;;;;;;;16.50;45.20;15.30;100322.00;;;;5060574;28;19981;-61
2021/12/05 17:32:38;;;;;;;;;;;16.50;45.10;15.30;100341.00;;;;5056277;28;20273;-62
2021/12/05 17:35:26;;;;;;;;;;;16.50;45.10;15.30;100345.00;;;;5059905;28;19923;-63
2021/12/05 17:38:12;;;;;;;;;;;16.50;45.00;15.20;100340.00;;;;5033743;28;19931;-61
2021/12/05 17:41:38;;;;;;;;;;;16.50;44.90;15.20;100344.00;;;;5054115;28;20121;-61
2021/12/05 17:44:26;;;;;;;;;;;16.40;44.90;15.20;100344.00;;;;5053453;28;19924;-62
2021/12/05 17:47:13;;;;;;;;;;;16.40;45.00;15.30;100353.00;;;;5055664;28;19929;-63
2021/12/05 17:50:01;;;;;;;;;;;16.40;45.00;15.30;100360.00;;;;5068319;28;19916;-61
2021/12/05 17:52:49;;;;;;;;;;;16.40;45.00;15.30;100358.00;;;;5048622;28;19943;-62
2021/12/05 17:55:42;;;;;;;;;;;16.40;45.10;15.30;100363.00;;;;5059050;28;20007;-61
2021/12/05 18:04:39;;;;;;;;;;;16.40;45.10;15.30;100376.00;;;;5060346;28;19968;-61
2021/12/05 18:07:25;;;;;;;;;;;16.40;45.10;15.30;100384.00;;;;5057899;28;20014;-62
2021/12/05 18:10:11;;;;;;;;;;;16.40;45.10;15.30;100381.00;;;;5058534;28;19970;-61
2021/12/05 18:12:59;;;;;;;;;;;16.40;45.10;15.30;100388.00;;;;5069756;28;19917;-62
2021/12/05 18:15:50;;;;;;;;;;;16.40;45.10;15.30;100388.00;;;;5071846;28;19931;-62
2021/12/05 18:18:36;;;;;;;;;;;16.40;45.00;15.30;100392.00;;;;5058813;28;19939;-62
2021/12/05 18:21:25;;;;;;;;;;;16.40;45.10;15.30;100399.00;;;;5060920;28;20111;-61
2021/12/05 18:24:13;;;;;;;;;;;16.40;45.00;15.30;100408.00;;;;5057514;28;19920;-62
2021/12/05 18:26:59;;;;;;;;;;;16.40;45.10;15.30;100407.00;;;;5068059;28;20144;-61
2021/12/05 18:29:46;;;;;;;;;;;16.50;45.10;15.30;100414.00;;;;5058363;28;19917;-61
2021/12/05 18:32:33;;;;;;;;;;;16.50;45.10;15.30;100417.00;;;;5065911;28;20354;-61
2021/12/05 18:35:19;;;;;;;;;;;16.50;45.10;15.30;100429.00;;;;5060450;28;20350;-62
2021/12/05 18:38:08;;;;;;;;;;;16.50;45.10;15.30;100433.00;;;;5060570;28;19925;-61
2021/12/05 18:40:57;;;;;;;;;;;16.50;45.10;15.30;100436.00;;;;5053829;28;20377;-62
2021/12/05 18:44:03;;;;;;;;;;;16.50;45.10;15.30;100440.00;;;;5067280;28;19924;-62
2021/12/05 18:46:50;;;;;;;;;;;16.50;45.10;15.30;100439.00;;;;5050633;28;20019;-61
2021/12/05 18:49:37;;;;;;;;;;;16.80;45.30;15.30;100443.00;;;;5060265;28;19942;-62
2021/12/05 18:52:24;;;;;;;;;;;16.50;45.10;15.30;100442.00;;;;5060358;28;20305;-62
2021/12/05 18:55:13;;;;;;;;;;;16.50;45.10;15.30;100445.00;;;;5061766;28;20282;-62
2021/12/05 18:58:02;;;;;;;;;;;16.50;45.10;15.30;100456.00;;;;5052947;28;19920;-61
2021/12/05 19:07:07;;;;;;;;;;;16.50;45.10;15.30;100453.00;;;;5052859;28;19920;-61
2021/12/05 19:12:52;;;;;;;;;;;16.50;45.10;15.30;100463.00;;;;5053800;28;19917;-61